DLH996 EDDF-EGNT
Flight info
| Callsign | DLH996 |
|---|---|
| Flight time | 1h 27m |
| Altitude | 34000 |
| Route | OBOKA3W OBOKA Z28 DIBIR DCT BUDIP DCT MIMVA L602 NALAX L46 RIMTO |
| Aircraft | A320/M-SDE3FGHIRWY/LB1 |
Departure
| Time | 2026-05-05 13:11 |
|---|---|
| Airport | Frankfurt Main Airport (EDDF) |
Arrival
| Time | 2026-05-05 14:38 |
|---|---|
| Airport | Newcastle International Airport (EGNT) |
| Time | Latitude | Longitude | Altitude | Speed | Heading |
|---|---|---|---|---|---|
| 2026-05-05 12:50 | 50.04038 | 8.55548 | 351 ft | 0 kts | 160° |
| 2026-05-05 13:05 | 50.04037 | 8.55548 | 350 ft | 1 kts | 160° |
| 2026-05-05 13:06 | 50.03981 | 8.55595 | 354 ft | 14 kts | 123° |
| 2026-05-05 13:06 | 50.03995 | 8.55730 | 353 ft | 12 kts | 69° |
| 2026-05-05 13:06 | 50.04034 | 8.55892 | 353 ft | 19 kts | 70° |
| 2026-05-05 13:06 | 50.04077 | 8.56076 | 356 ft | 17 kts | 70° |
| 2026-05-05 13:07 | 50.04115 | 8.56231 | 355 ft | 14 kts | 69° |
| 2026-05-05 13:07 | 50.04158 | 8.56414 | 356 ft | 25 kts | 70° |
| 2026-05-05 13:07 | 50.04221 | 8.56669 | 364 ft | 25 kts | 70° |
| 2026-05-05 13:07 | 50.04279 | 8.56920 | 359 ft | 25 kts | 70° |
| 2026-05-05 13:08 | 50.04341 | 8.57174 | 365 ft | 25 kts | 69° |
| 2026-05-05 13:08 | 50.04403 | 8.57435 | 364 ft | 26 kts | 70° |
| 2026-05-05 13:08 | 50.04466 | 8.57699 | 365 ft | 26 kts | 69° |
| 2026-05-05 13:08 | 50.04530 | 8.57968 | 368 ft | 27 kts | 70° |
| 2026-05-05 13:09 | 50.04597 | 8.58248 | 368 ft | 27 kts | 70° |
| 2026-05-05 13:09 | 50.04644 | 8.58448 | 374 ft | 14 kts | 70° |
| 2026-05-05 13:09 | 50.04627 | 8.58568 | 369 ft | 12 kts | 151° |
| 2026-05-05 13:09 | 50.04537 | 8.58618 | 371 ft | 16 kts | 165° |
| 2026-05-05 13:10 | 50.04459 | 8.58464 | 371 ft | 31 kts | 250° |
| 2026-05-05 13:10 | 50.04297 | 8.57791 | 368 ft | 99 kts | 249° |
| 2026-05-05 13:10 | 50.03989 | 8.56508 | 356 ft | 152 kts | 249° |
| 2026-05-05 13:10 | 50.03606 | 8.54886 | 835 ft | 155 kts | 249° |
| 2026-05-05 13:11 | 50.03230 | 8.53323 | 1486 ft | 156 kts | 249° |
| 2026-05-05 13:11 | 50.02819 | 8.51631 | 1795 ft | 178 kts | 249° |
| 2026-05-05 13:11 | 50.02207 | 8.49843 | 2103 ft | 197 kts | 230° |
| 2026-05-05 13:11 | 50.01113 | 8.48479 | 2567 ft | 208 kts | 205° |
| 2026-05-05 13:12 | 49.99744 | 8.47909 | 3296 ft | 206 kts | 188° |
| 2026-05-05 13:12 | 49.98312 | 8.47612 | 4000 ft | 209 kts | 187° |
| 2026-05-05 13:12 | 49.96862 | 8.47308 | 4723 ft | 211 kts | 188° |
| 2026-05-05 13:12 | 49.95421 | 8.46812 | 5330 ft | 220 kts | 197° |
| 2026-05-05 13:13 | 49.93882 | 8.46094 | 5718 ft | 239 kts | 197° |
| 2026-05-05 13:13 | 49.92317 | 8.45122 | 6423 ft | 246 kts | 211° |
| 2026-05-05 13:13 | 49.90984 | 8.43442 | 7158 ft | 250 kts | 227° |
| 2026-05-05 13:13 | 49.89992 | 8.41203 | 7928 ft | 254 kts | 238° |
| 2026-05-05 13:14 | 49.89127 | 8.38791 | 8712 ft | 258 kts | 246° |
| 2026-05-05 13:14 | 49.88655 | 8.36077 | 9473 ft | 268 kts | 261° |
| 2026-05-05 13:14 | 49.88688 | 8.33075 | 9873 ft | 287 kts | 273° |
| 2026-05-05 13:14 | 49.88876 | 8.29907 | 10229 ft | 306 kts | 275° |
| 2026-05-05 13:15 | 49.89393 | 8.26579 | 10431 ft | 331 kts | 291° |
| 2026-05-05 13:15 | 49.90563 | 8.23433 | 10926 ft | 343 kts | 305° |
| 2026-05-05 13:15 | 49.91995 | 8.20448 | 11611 ft | 347 kts | 305° |
| 2026-05-05 13:15 | 49.93443 | 8.17421 | 12345 ft | 351 kts | 307° |
| 2026-05-05 13:16 | 49.95120 | 8.14636 | 13028 ft | 356 kts | 317° |
| 2026-05-05 13:16 | 49.97008 | 8.12105 | 13700 ft | 360 kts | 318° |
| 2026-05-05 13:16 | 49.98915 | 8.09555 | 14292 ft | 364 kts | 318° |
| 2026-05-05 13:16 | 50.00850 | 8.06974 | 14891 ft | 367 kts | 318° |
| 2026-05-05 13:17 | 50.02799 | 8.04380 | 15488 ft | 371 kts | 318° |
| 2026-05-05 13:17 | 50.04768 | 8.01753 | 16084 ft | 375 kts | 318° |
| 2026-05-05 13:17 | 50.06754 | 7.99096 | 16660 ft | 378 kts | 317° |
| 2026-05-05 13:17 | 50.08757 | 7.96406 | 17238 ft | 382 kts | 317° |
| 2026-05-05 13:18 | 50.10773 | 7.93693 | 17813 ft | 385 kts | 317° |
| 2026-05-05 13:18 | 50.12809 | 7.90946 | 18357 ft | 388 kts | 317° |
| 2026-05-05 13:18 | 50.14862 | 7.88173 | 18860 ft | 392 kts | 317° |
| 2026-05-05 13:18 | 50.16934 | 7.85374 | 19379 ft | 394 kts | 317° |
| 2026-05-05 13:19 | 50.18987 | 7.82596 | 19888 ft | 397 kts | 317° |
| 2026-05-05 13:19 | 50.21106 | 7.79723 | 20423 ft | 400 kts | 317° |
| 2026-05-05 13:19 | 50.23191 | 7.76903 | 20933 ft | 403 kts | 317° |
| 2026-05-05 13:19 | 50.25418 | 7.74213 | 21430 ft | 407 kts | 326° |
| 2026-05-05 13:20 | 50.27925 | 7.72112 | 21921 ft | 412 kts | 335° |
| 2026-05-05 13:20 | 50.30600 | 7.70292 | 22427 ft | 415 kts | 335° |
| 2026-05-05 13:20 | 50.33222 | 7.68503 | 22902 ft | 418 kts | 335° |
| 2026-05-05 13:20 | 50.35896 | 7.66673 | 23375 ft | 421 kts | 335° |
| 2026-05-05 13:21 | 50.38591 | 7.64825 | 23765 ft | 424 kts | 335° |
| 2026-05-05 13:21 | 50.41308 | 7.62960 | 24145 ft | 427 kts | 335° |
| 2026-05-05 13:21 | 50.44036 | 7.61085 | 24526 ft | 430 kts | 335° |
| 2026-05-05 13:21 | 50.46786 | 7.59192 | 24895 ft | 432 kts | 334° |
| 2026-05-05 13:22 | 50.49546 | 7.57288 | 25253 ft | 435 kts | 334° |
| 2026-05-05 13:22 | 50.52324 | 7.55370 | 25604 ft | 437 kts | 334° |
| 2026-05-05 13:22 | 50.55107 | 7.53416 | 25948 ft | 439 kts | 331° |
| 2026-05-05 13:22 | 50.57747 | 7.50994 | 26285 ft | 439 kts | 324° |
| 2026-05-05 13:23 | 50.60314 | 7.48361 | 26619 ft | 442 kts | 324° |
| 2026-05-05 13:23 | 50.62894 | 7.45716 | 26980 ft | 444 kts | 324° |
| 2026-05-05 13:23 | 50.65494 | 7.43049 | 27370 ft | 445 kts | 323° |
| 2026-05-05 13:23 | 50.68084 | 7.40387 | 27758 ft | 446 kts | 323° |
| 2026-05-05 13:24 | 50.70683 | 7.37712 | 28130 ft | 447 kts | 323° |
| 2026-05-05 13:24 | 50.73204 | 7.34844 | 28440 ft | 446 kts | 316° |
| 2026-05-05 13:24 | 50.75412 | 7.31439 | 28754 ft | 443 kts | 307° |
| 2026-05-05 13:24 | 50.77274 | 7.27592 | 29065 ft | 441 kts | 301° |
| 2026-05-05 13:25 | 50.79045 | 7.23618 | 29369 ft | 443 kts | 301° |
| 2026-05-05 13:25 | 50.80824 | 7.19634 | 29667 ft | 444 kts | 301° |
| 2026-05-05 13:25 | 50.82609 | 7.15639 | 29950 ft | 446 kts | 301° |
| 2026-05-05 13:25 | 50.84403 | 7.11620 | 30188 ft | 447 kts | 301° |
| 2026-05-05 13:26 | 50.86198 | 7.07583 | 30420 ft | 449 kts | 301° |
| 2026-05-05 13:26 | 50.87974 | 7.03570 | 30622 ft | 451 kts | 301° |
| 2026-05-05 13:26 | 50.89782 | 6.99482 | 30821 ft | 453 kts | 301° |
| 2026-05-05 13:26 | 50.91593 | 6.95385 | 31056 ft | 453 kts | 301° |
| 2026-05-05 13:27 | 50.93400 | 6.91296 | 31344 ft | 453 kts | 300° |
| 2026-05-05 13:27 | 50.95207 | 6.87203 | 31635 ft | 452 kts | 300° |
| 2026-05-05 13:27 | 50.97007 | 6.83116 | 31920 ft | 452 kts | 300° |
| 2026-05-05 13:27 | 50.98805 | 6.79032 | 32206 ft | 451 kts | 300° |
| 2026-05-05 13:28 | 51.00603 | 6.74946 | 32488 ft | 451 kts | 300° |
| 2026-05-05 13:28 | 51.02398 | 6.70864 | 32766 ft | 451 kts | 300° |
| 2026-05-05 13:28 | 51.04187 | 6.66786 | 33047 ft | 450 kts | 300° |
| 2026-05-05 13:28 | 51.05973 | 6.62708 | 33355 ft | 450 kts | 300° |
| 2026-05-05 13:29 | 51.07752 | 6.58630 | 33712 ft | 447 kts | 299° |
| 2026-05-05 13:29 | 51.09521 | 6.54566 | 33869 ft | 445 kts | 299° |
| 2026-05-05 13:29 | 51.13001 | 6.46563 | 33888 ft | 437 kts | 299° |
| 2026-05-05 13:30 | 51.16435 | 6.38627 | 33902 ft | 435 kts | 299° |
| 2026-05-05 13:30 | 51.19847 | 6.30719 | 33888 ft | 431 kts | 299° |
| 2026-05-05 13:31 | 51.23235 | 6.22848 | 33898 ft | 430 kts | 299° |
| 2026-05-05 13:31 | 51.26622 | 6.14959 | 33886 ft | 431 kts | 299° |
| 2026-05-05 13:32 | 51.29987 | 6.07007 | 33874 ft | 432 kts | 298° |
| 2026-05-05 13:32 | 51.33271 | 5.98953 | 33880 ft | 433 kts | 298° |
| 2026-05-05 13:33 | 51.36542 | 5.90855 | 33883 ft | 434 kts | 299° |
| 2026-05-05 13:33 | 51.40618 | 5.83606 | 33892 ft | 444 kts | 314° |
| 2026-05-05 13:34 | 51.45260 | 5.77076 | 33905 ft | 444 kts | 314° |
| 2026-05-05 13:34 | 51.49880 | 5.70513 | 33918 ft | 443 kts | 313° |
| 2026-05-05 13:35 | 51.54484 | 5.63932 | 33918 ft | 443 kts | 313° |
| 2026-05-05 13:35 | 51.59085 | 5.57336 | 33911 ft | 443 kts | 313° |
| 2026-05-05 13:36 | 51.62906 | 5.51846 | 33910 ft | 443 kts | 313° |
| 2026-05-05 13:36 | 51.67511 | 5.45231 | 33907 ft | 443 kts | 313° |
| 2026-05-05 13:37 | 51.72104 | 5.38609 | 33928 ft | 442 kts | 313° |
| 2026-05-05 13:37 | 51.76684 | 5.31992 | 33937 ft | 441 kts | 313° |
| 2026-05-05 13:38 | 51.81261 | 5.25364 | 33915 ft | 442 kts | 313° |
| 2026-05-05 13:38 | 51.85832 | 5.18727 | 33905 ft | 442 kts | 313° |
| 2026-05-05 13:39 | 51.90392 | 5.12063 | 33906 ft | 442 kts | 313° |
| 2026-05-05 13:39 | 51.94952 | 5.05381 | 33916 ft | 442 kts | 312° |
| 2026-05-05 13:40 | 51.99495 | 4.98707 | 33920 ft | 440 kts | 312° |
| 2026-05-05 13:40 | 52.04030 | 4.92052 | 33927 ft | 439 kts | 312° |
| 2026-05-05 13:41 | 52.08564 | 4.85377 | 33937 ft | 440 kts | 313° |
| 2026-05-05 13:41 | 52.13102 | 4.78666 | 33942 ft | 441 kts | 312° |
| 2026-05-05 13:42 | 52.17637 | 4.71931 | 33945 ft | 440 kts | 312° |
| 2026-05-05 13:42 | 52.22156 | 4.65207 | 33936 ft | 439 kts | 313° |
| 2026-05-05 13:43 | 52.26662 | 4.58479 | 33947 ft | 438 kts | 313° |
| 2026-05-05 13:43 | 52.31155 | 4.51756 | 33946 ft | 438 kts | 313° |
| 2026-05-05 13:44 | 52.35639 | 4.45029 | 33938 ft | 437 kts | 313° |
| 2026-05-05 13:44 | 52.40118 | 4.38292 | 33938 ft | 437 kts | 313° |
| 2026-05-05 13:45 | 52.44589 | 4.31534 | 33961 ft | 437 kts | 313° |
| 2026-05-05 13:45 | 52.48911 | 4.24991 | 33971 ft | 436 kts | 313° |
| 2026-05-05 13:46 | 52.52728 | 4.19210 | 33962 ft | 435 kts | 313° |
| 2026-05-05 13:46 | 52.56957 | 4.12769 | 33970 ft | 434 kts | 313° |
| 2026-05-05 13:47 | 52.60983 | 4.06627 | 33963 ft | 434 kts | 313° |
| 2026-05-05 13:47 | 52.65367 | 3.99925 | 33984 ft | 433 kts | 313° |
| 2026-05-05 13:48 | 52.69777 | 3.93154 | 33985 ft | 432 kts | 313° |
| 2026-05-05 13:48 | 52.74031 | 3.86592 | 33991 ft | 431 kts | 313° |
| 2026-05-05 13:49 | 52.78412 | 3.79825 | 33982 ft | 431 kts | 313° |
| 2026-05-05 13:49 | 52.82791 | 3.73059 | 33977 ft | 430 kts | 313° |
| 2026-05-05 13:50 | 52.87165 | 3.66281 | 33973 ft | 430 kts | 313° |
| 2026-05-05 13:50 | 52.91525 | 3.59500 | 33978 ft | 430 kts | 313° |
| 2026-05-05 13:51 | 52.95878 | 3.52699 | 34003 ft | 430 kts | 313° |
| 2026-05-05 13:51 | 53.00231 | 3.45873 | 33989 ft | 430 kts | 313° |
| 2026-05-05 13:52 | 53.04578 | 3.39050 | 33985 ft | 430 kts | 313° |
| 2026-05-05 13:52 | 53.08587 | 3.31783 | 33980 ft | 423 kts | 299° |
| 2026-05-05 13:53 | 53.11034 | 3.23051 | 33976 ft | 414 kts | 282° |
| 2026-05-05 13:53 | 53.12293 | 3.13726 | 33976 ft | 412 kts | 279° |
| 2026-05-05 13:54 | 53.13527 | 3.04401 | 33983 ft | 412 kts | 279° |
| 2026-05-05 13:54 | 53.14757 | 2.95122 | 33979 ft | 413 kts | 279° |
| 2026-05-05 13:55 | 53.15988 | 2.85764 | 33981 ft | 413 kts | 279° |
| 2026-05-05 13:55 | 53.17200 | 2.76397 | 33981 ft | 413 kts | 279° |
| 2026-05-05 13:56 | 53.18400 | 2.67010 | 33985 ft | 414 kts | 279° |
| 2026-05-05 13:56 | 53.19600 | 2.57625 | 33986 ft | 414 kts | 279° |
| 2026-05-05 13:57 | 53.20790 | 2.48237 | 33991 ft | 414 kts | 279° |
| 2026-05-05 13:57 | 53.21968 | 2.38832 | 33987 ft | 414 kts | 279° |
| 2026-05-05 13:58 | 53.23151 | 2.29408 | 33998 ft | 415 kts | 279° |
| 2026-05-05 13:58 | 53.24329 | 2.19975 | 33984 ft | 416 kts | 280° |
| 2026-05-05 13:59 | 53.26090 | 2.05763 | 33984 ft | 417 kts | 280° |
| 2026-05-05 14:00 | 53.27646 | 1.93086 | 33978 ft | 420 kts | 280° |
| 2026-05-05 14:00 | 53.28998 | 1.81893 | 33980 ft | 421 kts | 280° |
| 2026-05-05 14:01 | 53.30150 | 1.72285 | 33984 ft | 422 kts | 280° |
| 2026-05-05 14:01 | 53.31300 | 1.62663 | 33987 ft | 422 kts | 280° |
| 2026-05-05 14:02 | 53.32435 | 1.53025 | 33992 ft | 423 kts | 280° |
| 2026-05-05 14:02 | 53.33681 | 1.43393 | 33981 ft | 425 kts | 282° |
| 2026-05-05 14:03 | 53.35126 | 1.33783 | 33982 ft | 426 kts | 283° |
| 2026-05-05 14:03 | 53.36583 | 1.24173 | 33984 ft | 426 kts | 283° |
| 2026-05-05 14:04 | 53.37975 | 1.14537 | 33983 ft | 426 kts | 282° |
| 2026-05-05 14:04 | 53.39338 | 1.04868 | 33987 ft | 426 kts | 282° |
| 2026-05-05 14:05 | 53.40703 | 0.95200 | 33985 ft | 427 kts | 281° |
| 2026-05-05 14:05 | 53.42057 | 0.85566 | 33984 ft | 428 kts | 282° |
| 2026-05-05 14:06 | 53.43423 | 0.75833 | 33991 ft | 429 kts | 282° |
| 2026-05-05 14:06 | 53.44782 | 0.66097 | 33990 ft | 429 kts | 282° |
| 2026-05-05 14:07 | 53.46128 | 0.56332 | 33997 ft | 429 kts | 282° |
| 2026-05-05 14:07 | 53.47466 | 0.46574 | 33985 ft | 429 kts | 282° |
| 2026-05-05 14:08 | 53.48784 | 0.36800 | 33989 ft | 430 kts | 282° |
| 2026-05-05 14:08 | 53.50113 | 0.26994 | 33985 ft | 430 kts | 282° |
| 2026-05-05 14:09 | 53.51443 | 0.17201 | 33986 ft | 430 kts | 282° |
| 2026-05-05 14:09 | 53.52751 | 0.07384 | 33987 ft | 431 kts | 282° |
| 2026-05-05 14:10 | 53.54047 | -0.02376 | 34003 ft | 431 kts | 282° |
| 2026-05-05 14:10 | 53.55342 | -0.12218 | 34010 ft | 431 kts | 282° |
| 2026-05-05 14:11 | 53.56623 | -0.22076 | 34017 ft | 432 kts | 282° |
| 2026-05-05 14:11 | 53.57902 | -0.31939 | 34016 ft | 432 kts | 282° |
| 2026-05-05 14:12 | 53.59179 | -0.41827 | 34023 ft | 432 kts | 281° |
| 2026-05-05 14:12 | 53.60447 | -0.51708 | 34023 ft | 432 kts | 281° |
| 2026-05-05 14:13 | 53.61711 | -0.61605 | 34018 ft | 432 kts | 281° |
| 2026-05-05 14:13 | 53.62962 | -0.71501 | 34013 ft | 432 kts | 281° |
| 2026-05-05 14:14 | 53.64198 | -0.81406 | 34007 ft | 432 kts | 281° |
| 2026-05-05 14:14 | 53.65423 | -0.91320 | 33998 ft | 432 kts | 281° |
| 2026-05-05 14:15 | 53.66651 | -1.01228 | 33972 ft | 432 kts | 281° |
| 2026-05-05 14:15 | 53.67269 | -1.06217 | 33146 ft | 437 kts | 281° |
| 2026-05-05 14:15 | 53.67881 | -1.11205 | 32625 ft | 431 kts | 280° |
| 2026-05-05 14:16 | 53.68483 | -1.16134 | 32086 ft | 427 kts | 280° |
| 2026-05-05 14:16 | 53.68877 | -1.19372 | 31745 ft | 424 kts | 280° |
| 2026-05-05 14:16 | 53.69465 | -1.24230 | 31230 ft | 420 kts | 280° |
| 2026-05-05 14:16 | 53.70041 | -1.29042 | 30723 ft | 416 kts | 281° |
| 2026-05-05 14:17 | 53.70622 | -1.33804 | 30219 ft | 413 kts | 283° |
| 2026-05-05 14:17 | 53.71563 | -1.38359 | 29667 ft | 411 kts | 294° |
| 2026-05-05 14:17 | 53.73028 | -1.42471 | 29195 ft | 407 kts | 306° |
| 2026-05-05 14:17 | 53.74917 | -1.45993 | 28712 ft | 404 kts | 317° |
| 2026-05-05 14:18 | 53.77172 | -1.48805 | 28254 ft | 401 kts | 327° |
| 2026-05-05 14:18 | 53.79552 | -1.51218 | 27790 ft | 397 kts | 327° |
| 2026-05-05 14:18 | 53.81904 | -1.53607 | 27353 ft | 392 kts | 327° |
| 2026-05-05 14:18 | 53.84228 | -1.55982 | 26910 ft | 388 kts | 326° |
| 2026-05-05 14:19 | 53.86528 | -1.58346 | 26478 ft | 385 kts | 326° |
| 2026-05-05 14:19 | 53.88805 | -1.60692 | 26050 ft | 381 kts | 326° |
| 2026-05-05 14:19 | 53.91062 | -1.63019 | 25608 ft | 378 kts | 326° |
| 2026-05-05 14:19 | 53.93304 | -1.65326 | 25160 ft | 376 kts | 326° |
| 2026-05-05 14:20 | 53.95531 | -1.67619 | 24713 ft | 374 kts | 326° |
| 2026-05-05 14:20 | 53.97755 | -1.69905 | 24248 ft | 372 kts | 326° |
| 2026-05-05 14:20 | 53.99973 | -1.72187 | 23786 ft | 371 kts | 325° |
| 2026-05-05 14:20 | 54.02175 | -1.74459 | 23266 ft | 369 kts | 325° |
| 2026-05-05 14:21 | 54.04364 | -1.76724 | 22788 ft | 366 kts | 325° |
| 2026-05-05 14:21 | 54.06530 | -1.78969 | 22319 ft | 363 kts | 325° |
| 2026-05-05 14:21 | 54.08677 | -1.81194 | 21952 ft | 357 kts | 325° |
| 2026-05-05 14:21 | 54.10766 | -1.83353 | 21792 ft | 347 kts | 326° |
| 2026-05-05 14:22 | 54.12958 | -1.85040 | 21409 ft | 347 kts | 340° |
| 2026-05-05 14:22 | 54.15329 | -1.85805 | 21019 ft | 349 kts | 353° |
| 2026-05-05 14:22 | 54.17788 | -1.85617 | 20166 ft | 363 kts | 7° |
| 2026-05-05 14:22 | 54.20286 | -1.84816 | 19666 ft | 364 kts | 7° |
| 2026-05-05 14:23 | 54.22766 | -1.84014 | 19228 ft | 362 kts | 7° |
| 2026-05-05 14:23 | 54.25244 | -1.83218 | 18775 ft | 362 kts | 7° |
| 2026-05-05 14:23 | 54.27710 | -1.82434 | 18336 ft | 360 kts | 7° |
| 2026-05-05 14:23 | 54.30172 | -1.81660 | 17852 ft | 359 kts | 7° |
| 2026-05-05 14:24 | 54.32619 | -1.80896 | 17418 ft | 356 kts | 7° |
| 2026-05-05 14:24 | 54.35048 | -1.80136 | 16987 ft | 353 kts | 7° |
| 2026-05-05 14:24 | 54.37455 | -1.79382 | 16562 ft | 351 kts | 7° |
| 2026-05-05 14:24 | 54.39851 | -1.78627 | 16140 ft | 349 kts | 7° |
| 2026-05-05 14:25 | 54.42244 | -1.77872 | 15522 ft | 352 kts | 7° |
| 2026-05-05 14:25 | 54.44618 | -1.77125 | 15196 ft | 347 kts | 7° |
| 2026-05-05 14:25 | 54.47012 | -1.76367 | 14799 ft | 344 kts | 7° |
| 2026-05-05 14:25 | 54.49325 | -1.75632 | 14466 ft | 340 kts | 7° |
| 2026-05-05 14:26 | 54.51613 | -1.74900 | 14343 ft | 329 kts | 7° |
| 2026-05-05 14:26 | 54.53827 | -1.74193 | 14211 ft | 319 kts | 7° |
| 2026-05-05 14:26 | 54.55991 | -1.73503 | 13965 ft | 314 kts | 7° |
| 2026-05-05 14:26 | 54.58123 | -1.72825 | 13580 ft | 309 kts | 8° |
| 2026-05-05 14:27 | 54.60230 | -1.72153 | 12917 ft | 306 kts | 7° |
| 2026-05-05 14:27 | 54.62338 | -1.71482 | 12263 ft | 302 kts | 7° |
| 2026-05-05 14:27 | 54.64367 | -1.70837 | 11634 ft | 298 kts | 7° |
| 2026-05-05 14:27 | 54.66356 | -1.70198 | 11410 ft | 280 kts | 8° |
| 2026-05-05 14:28 | 54.68213 | -1.69602 | 11165 ft | 265 kts | 5° |
| 2026-05-05 14:28 | 54.70003 | -1.69606 | 10721 ft | 253 kts | 346° |
| 2026-05-05 14:28 | 54.71644 | -1.70580 | 10173 ft | 249 kts | 330° |
| 2026-05-05 14:28 | 54.73074 | -1.72240 | 9613 ft | 245 kts | 321° |
| 2026-05-05 14:29 | 54.74399 | -1.74016 | 9278 ft | 239 kts | 321° |
| 2026-05-05 14:29 | 54.75685 | -1.75760 | 8925 ft | 230 kts | 321° |
| 2026-05-05 14:29 | 54.76925 | -1.77431 | 8581 ft | 221 kts | 320° |
| 2026-05-05 14:29 | 54.78116 | -1.79040 | 8240 ft | 213 kts | 321° |
| 2026-05-05 14:30 | 54.79266 | -1.80609 | 7952 ft | 208 kts | 320° |
| 2026-05-05 14:30 | 54.80386 | -1.82145 | 7629 ft | 202 kts | 320° |
| 2026-05-05 14:30 | 54.81463 | -1.83642 | 7368 ft | 196 kts | 320° |
| 2026-05-05 14:30 | 54.82510 | -1.85110 | 7115 ft | 191 kts | 320° |
| 2026-05-05 14:31 | 54.83526 | -1.86541 | 6866 ft | 186 kts | 320° |
| 2026-05-05 14:31 | 54.84520 | -1.87943 | 6616 ft | 184 kts | 320° |
| 2026-05-05 14:31 | 54.85511 | -1.89352 | 6372 ft | 184 kts | 320° |
| 2026-05-05 14:31 | 54.86488 | -1.90751 | 6055 ft | 181 kts | 320° |
| 2026-05-05 14:32 | 54.87453 | -1.92151 | 5619 ft | 181 kts | 320° |
| 2026-05-05 14:32 | 54.88419 | -1.93532 | 5200 ft | 180 kts | 327° |
| 2026-05-05 14:32 | 54.89606 | -1.94029 | 4786 ft | 179 kts | 8° |
| 2026-05-05 14:32 | 54.90795 | -1.93444 | 4481 ft | 177 kts | 19° |
| 2026-05-05 14:33 | 54.91944 | -1.92675 | 4190 ft | 175 kts | 20° |
| 2026-05-05 14:33 | 54.93070 | -1.91901 | 3905 ft | 173 kts | 21° |
| 2026-05-05 14:33 | 54.94175 | -1.91150 | 3620 ft | 171 kts | 20° |
| 2026-05-05 14:33 | 54.95282 | -1.90410 | 3340 ft | 169 kts | 20° |
| 2026-05-05 14:34 | 54.96367 | -1.89697 | 3107 ft | 164 kts | 20° |
| 2026-05-05 14:34 | 54.97425 | -1.89001 | 2877 ft | 160 kts | 20° |
| 2026-05-05 14:34 | 54.98415 | -1.88142 | 2619 ft | 160 kts | 37° |
| 2026-05-05 14:34 | 54.99091 | -1.86616 | 2395 ft | 159 kts | 62° |
| 2026-05-05 14:35 | 54.99544 | -1.84913 | 2200 ft | 152 kts | 61° |
| 2026-05-05 14:35 | 54.99986 | -1.83259 | 1972 ft | 150 kts | 60° |
| 2026-05-05 14:35 | 55.00425 | -1.81618 | 1763 ft | 149 kts | 61° |
| 2026-05-05 14:35 | 55.00840 | -1.80062 | 1551 ft | 136 kts | 60° |
| 2026-05-05 14:36 | 55.01229 | -1.78593 | 1372 ft | 130 kts | 60° |
| 2026-05-05 14:36 | 55.01606 | -1.77167 | 1188 ft | 129 kts | 60° |
| 2026-05-05 14:36 | 55.01984 | -1.75768 | 1026 ft | 127 kts | 60° |
| 2026-05-05 14:36 | 55.02360 | -1.74379 | 829 ft | 129 kts | 61° |
| 2026-05-05 14:37 | 55.02736 | -1.72970 | 644 ft | 128 kts | 63° |
| 2026-05-05 14:37 | 55.03101 | -1.71572 | 429 ft | 126 kts | 62° |
| 2026-05-05 14:37 | 55.03470 | -1.70185 | 276 ft | 125 kts | 62° |
| 2026-05-05 14:37 | 55.03770 | -1.69062 | 253 ft | 64 kts | 65° |
| 2026-05-05 14:38 | 55.03884 | -1.68638 | 249 ft | 33 kts | 65° |
| 2026-05-05 14:38 | 55.03952 | -1.68422 | 246 ft | 17 kts | 47° |
| 2026-05-05 14:38 | 55.04049 | -1.68295 | 245 ft | 18 kts | 36° |
| 2026-05-05 14:38 | 55.04146 | -1.68276 | 244 ft | 16 kts | 297° |
| 2026-05-05 14:39 | 55.04113 | -1.68464 | 246 ft | 22 kts | 245° |
| 2026-05-05 14:39 | 55.04035 | -1.68761 | 249 ft | 28 kts | 245° |
| 2026-05-05 14:39 | 55.03957 | -1.69054 | 252 ft | 25 kts | 245° |
| 2026-05-05 14:39 | 55.03888 | -1.69313 | 254 ft | 22 kts | 245° |
| 2026-05-05 14:40 | 55.03832 | -1.69529 | 256 ft | 20 kts | 246° |
| 2026-05-05 14:40 | 55.03795 | -1.69742 | 257 ft | 17 kts | 257° |
| 2026-05-05 14:40 | 55.03778 | -1.69940 | 257 ft | 18 kts | 263° |
| 2026-05-05 14:40 | 55.03777 | -1.70232 | 256 ft | 26 kts | 274° |
| 2026-05-05 14:41 | 55.03795 | -1.70462 | 255 ft | 17 kts | 282° |
| 2026-05-05 14:41 | 55.03804 | -1.70625 | 255 ft | 9 kts | 274° |
| 2026-05-05 14:41 | 55.03783 | -1.70666 | 255 ft | 5 kts | 188° |
| 2026-05-05 14:41 | 55.03758 | -1.70668 | 256 ft | 2 kts | 183° |
| 2026-05-05 14:42 | 55.03743 | -1.70670 | 257 ft | 0 kts | 184° |
| 2026-05-05 14:42 | 55.03734 | -1.70671 | 258 ft | 1 kts | 184° |
| 2026-05-05 14:42 | 55.03728 | -1.70672 | 258 ft | 0 kts | 184° |